sensor_id;sensor_type;location;lat;lon;timestamp;temperature;humidity
37786;DHT22;23625;48.784;9.336;2023-07-28T00:01:28;16.60;99.90
37786;DHT22;23625;48.784;9.336;2023-07-28T00:03:54;16.50;99.90
37786;DHT22;23625;48.784;9.336;2023-07-28T00:06:19;16.50;99.90
37786;DHT22;23625;48.784;9.336;2023-07-28T00:08:45;16.50;99.90
37786;DHT22;23625;48.784;9.336;2023-07-28T00:11:11;16.50;99.90
37786;DHT22;23625;48.784;9.336;2023-07-28T00:13:40;16.50;99.90
37786;DHT22;23625;48.784;9.336;2023-07-28T00:16:06;16.40;99.90
37786;DHT22;23625;48.784;9.336;2023-07-28T00:18:33;16.40;99.90
37786;DHT22;23625;48.784;9.336;2023-07-28T00:20:58;16.40;99.90
37786;DHT22;23625;48.784;9.336;2023-07-28T00:23:24;16.40;99.90
37786;DHT22;23625;48.784;9.336;2023-07-28T00:25:50;16.40;99.90
37786;DHT22;23625;48.784;9.336;2023-07-28T00:28:15;16.30;99.90
37786;DHT22;23625;48.784;9.336;2023-07-28T00:30:41;16.30;99.90
37786;DHT22;23625;48.784;9.336;2023-07-28T00:33:07;16.40;99.90
37786;DHT22;23625;48.784;9.336;2023-07-28T00:35:32;16.40;99.90
37786;DHT22;23625;48.784;9.336;2023-07-28T00:37:58;16.30;99.90
37786;DHT22;23625;48.784;9.336;2023-07-28T00:40:23;16.20;99.90
37786;DHT22;23625;48.784;9.336;2023-07-28T00:42:49;16.30;99.90
37786;DHT22;23625;48.784;9.336;2023-07-28T00:45:15;16.20;99.90
37786;DHT22;23625;48.784;9.336;2023-07-28T00:47:41;16.20;99.90
37786;DHT22;23625;48.784;9.336;2023-07-28T00:50:08;16.20;99.90
37786;DHT22;23625;48.784;9.336;2023-07-28T00:52:35;16.10;99.90
37786;DHT22;23625;48.784;9.336;2023-07-28T00:55:01;16.10;99.90
37786;DHT22;23625;48.784;9.336;2023-07-28T00:57:27;16.10;99.90
37786;DHT22;23625;48.784;9.336;2023-07-28T00:59:52;16.00;99.90
37786;DHT22;23625;48.784;9.336;2023-07-28T01:02:19;15.90;99.90
37786;DHT22;23625;48.784;9.336;2023-07-28T01:04:45;15.90;99.90
37786;DHT22;23625;48.784;9.336;2023-07-28T01:07:17;16.00;99.90
37786;DHT22;23625;48.784;9.336;2023-07-28T01:10:06;15.90;99.90
37786;DHT22;23625;48.784;9.336;2023-07-28T01:12:33;15.90;99.90
37786;DHT22;23625;48.784;9.336;2023-07-28T01:14:58;16.00;99.90
37786;DHT22;23625;48.784;9.336;2023-07-28T01:17:24;16.00;99.90
37786;DHT22;23625;48.784;9.336;2023-07-28T01:19:51;16.10;99.90
37786;DHT22;23625;48.784;9.336;2023-07-28T01:25:11;16.20;99.90
37786;DHT22;23625;48.784;9.336;2023-07-28T01:27:40;16.20;99.90
37786;DHT22;23625;48.784;9.336;2023-07-28T01:30:09;16.20;99.90
37786;DHT22;23625;48.784;9.336;2023-07-28T01:32:35;16.20;99.90
37786;DHT22;23625;48.784;9.336;2023-07-28T01:35:02;16.20;99.90
37786;DHT22;23625;48.784;9.336;2023-07-28T01:37:28;16.20;99.90
37786;DHT22;23625;48.784;9.336;2023-07-28T01:39:54;16.20;99.90
37786;DHT22;23625;48.784;9.336;2023-07-28T01:42:20;16.20;99.90
37786;DHT22;23625;48.784;9.336;2023-07-28T01:44:45;16.10;99.90
37786;DHT22;23625;48.784;9.336;2023-07-28T01:47:11;16.00;99.90
37786;DHT22;23625;48.784;9.336;2023-07-28T01:49:37;16.10;99.90
37786;DHT22;23625;48.784;9.336;2023-07-28T01:52:03;16.10;99.90
37786;DHT22;23625;48.784;9.336;2023-07-28T01:54:28;16.10;99.90
37786;DHT22;23625;48.784;9.336;2023-07-28T01:56:54;16.00;99.90
37786;DHT22;23625;48.784;9.336;2023-07-28T01:59:19;16.00;99.90
37786;DHT22;23625;48.784;9.336;2023-07-28T02:01:46;16.10;99.90
37786;DHT22;23625;48.784;9.336;2023-07-28T02:04:12;16.10;99.90
37786;DHT22;23625;48.784;9.336;2023-07-28T02:06:37;16.10;99.90
37786;DHT22;23625;48.784;9.336;2023-07-28T02:09:03;16.20;99.90
37786;DHT22;23625;48.784;9.336;2023-07-28T02:11:29;16.30;99.90
37786;DHT22;23625;48.784;9.336;2023-07-28T02:13:54;16.30;99.90
37786;DHT22;23625;48.784;9.336;2023-07-28T02:16:20;16.30;99.90
37786;DHT22;23625;48.784;9.336;2023-07-28T02:18:45;16.30;99.90
37786;DHT22;23625;48.784;9.336;2023-07-28T02:21:11;16.30;99.90
37786;DHT22;23625;48.784;9.336;2023-07-28T02:23:36;16.30;99.90
37786;DHT22;23625;48.784;9.336;2023-07-28T02:26:02;16.30;99.90
37786;DHT22;23625;48.784;9.336;2023-07-28T02:28:28;16.30;99.90
37786;DHT22;23625;48.784;9.336;2023-07-28T02:30:53;16.30;99.90
37786;DHT22;23625;48.784;9.336;2023-07-28T02:33:19;16.20;99.90
37786;DHT22;23625;48.784;9.336;2023-07-28T02:35:44;16.00;99.90
37786;DHT22;23625;48.784;9.336;2023-07-28T02:38:10;16.00;99.90
37786;DHT22;23625;48.784;9.336;2023-07-28T02:40:36;16.00;99.90
37786;DHT22;23625;48.784;9.336;2023-07-28T02:43:01;15.80;99.90
37786;DHT22;23625;48.784;9.336;2023-07-28T02:45:27;15.80;99.90
37786;DHT22;23625;48.784;9.336;2023-07-28T02:47:52;15.80;99.90
37786;DHT22;23625;48.784;9.336;2023-07-28T02:50:18;15.80;99.90
37786;DHT22;23625;48.784;9.336;2023-07-28T02:52:43;15.80;99.90
37786;DHT22;23625;48.784;9.336;2023-07-28T02:55:09;15.80;99.90
37786;DHT22;23625;48.784;9.336;2023-07-28T02:57:35;15.90;99.90
37786;DHT22;23625;48.784;9.336;2023-07-28T03:00:00;15.90;99.90
37786;DHT22;23625;48.784;9.336;2023-07-28T03:02:26;15.80;99.90
37786;DHT22;23625;48.784;9.336;2023-07-28T03:04:51;15.80;99.90
37786;DHT22;23625;48.784;9.336;2023-07-28T03:07:17;15.80;99.90
37786;DHT22;23625;48.784;9.336;2023-07-28T03:09:43;15.80;99.90
37786;DHT22;23625;48.784;9.336;2023-07-28T03:12:09;15.70;99.90
37786;DHT22;23625;48.784;9.336;2023-07-28T03:14:34;15.70;99.90
37786;DHT22;23625;48.784;9.336;2023-07-28T03:17:00;15.70;99.90
37786;DHT22;23625;48.784;9.336;2023-07-28T03:19:25;15.70;99.90
37786;DHT22;23625;48.784;9.336;2023-07-28T03:21:51;15.70;99.90
37786;DHT22;23625;48.784;9.336;2023-07-28T03:24:17;15.70;99.90
37786;DHT22;23625;48.784;9.336;2023-07-28T03:26:42;15.60;99.90
37786;DHT22;23625;48.784;9.336;2023-07-28T03:29:08;15.60;99.90
37786;DHT22;23625;48.784;9.336;2023-07-28T03:31:33;15.60;99.90
37786;DHT22;23625;48.784;9.336;2023-07-28T03:34:02;15.50;99.90
37786;DHT22;23625;48.784;9.336;2023-07-28T03:36:28;15.50;99.90
37786;DHT22;23625;48.784;9.336;2023-07-28T03:38:53;15.60;99.90
37786;DHT22;23625;48.784;9.336;2023-07-28T03:41:20;15.60;99.90
37786;DHT22;23625;48.784;9.336;2023-07-28T03:43:45;15.70;99.90
37786;DHT22;23625;48.784;9.336;2023-07-28T03:46:11;15.80;99.90
37786;DHT22;23625;48.784;9.336;2023-07-28T03:48:37;15.80;99.90
37786;DHT22;23625;48.784;9.336;2023-07-28T03:51:02;15.80;99.90
37786;DHT22;23625;48.784;9.336;2023-07-28T03:53:28;15.80;99.90
37786;DHT22;23625;48.784;9.336;2023-07-28T03:55:54;15.80;99.90
37786;DHT22;23625;48.784;9.336;2023-07-28T03:58:24;15.80;99.90
37786;DHT22;23625;48.784;9.336;2023-07-28T04:00:51;15.70;99.90
37786;DHT22;23625;48.784;9.336;2023-07-28T04:03:17;15.70;99.90
37786;DHT22;23625;48.784;9.336;2023-07-28T04:05:42;15.70;99.90
37786;DHT22;23625;48.784;9.336;2023-07-28T04:08:08;15.70;99.90
37786;DHT22;23625;48.784;9.336;2023-07-28T04:10:34;15.60;99.90
37786;DHT22;23625;48.784;9.336;2023-07-28T04:12:59;15.70;99.90
37786;DHT22;23625;48.784;9.336;2023-07-28T04:15:25;15.60;99.90
37786;DHT22;23625;48.784;9.336;2023-07-28T04:17:50;15.60;99.90
37786;DHT22;23625;48.784;9.336;2023-07-28T04:20:16;15.60;99.90
37786;DHT22;23625;48.784;9.336;2023-07-28T04:22:41;15.70;99.90
37786;DHT22;23625;48.784;9.336;2023-07-28T04:25:07;15.70;99.90
37786;DHT22;23625;48.784;9.336;2023-07-28T04:27:33;15.80;99.90
37786;DHT22;23625;48.784;9.336;2023-07-28T04:29:58;15.90;99.90
37786;DHT22;23625;48.784;9.336;2023-07-28T04:32:24;15.90;99.90
37786;DHT22;23625;48.784;9.336;2023-07-28T04:34:51;15.90;99.90
37786;DHT22;23625;48.784;9.336;2023-07-28T04:37:17;15.90;99.90
37786;DHT22;23625;48.784;9.336;2023-07-28T04:39:42;15.90;99.90
37786;DHT22;23625;48.784;9.336;2023-07-28T04:42:08;15.90;99.90
37786;DHT22;23625;48.784;9.336;2023-07-28T04:44:36;16.00;99.90
37786;DHT22;23625;48.784;9.336;2023-07-28T04:47:01;15.90;99.90
37786;DHT22;23625;48.784;9.336;2023-07-28T04:49:27;16.00;99.90
37786;DHT22;23625;48.784;9.336;2023-07-28T04:51:52;16.00;99.90
37786;DHT22;23625;48.784;9.336;2023-07-28T04:54:18;16.00;99.90
37786;DHT22;23625;48.784;9.336;2023-07-28T04:56:43;16.00;99.90
37786;DHT22;23625;48.784;9.336;2023-07-28T04:59:09;16.00;99.90
37786;DHT22;23625;48.784;9.336;2023-07-28T05:01:34;16.00;99.90
37786;DHT22;23625;48.784;9.336;2023-07-28T05:04:00;16.00;99.90
37786;DHT22;23625;48.784;9.336;2023-07-28T05:06:26;16.00;99.90
37786;DHT22;23625;48.784;9.336;2023-07-28T05:08:51;16.00;99.90
37786;DHT22;23625;48.784;9.336;2023-07-28T05:11:17;16.00;99.90
37786;DHT22;23625;48.784;9.336;2023-07-28T05:13:42;16.00;99.90
37786;DHT22;23625;48.784;9.336;2023-07-28T05:16:08;16.00;99.90
37786;DHT22;23625;48.784;9.336;2023-07-28T05:18:34;16.00;99.90
37786;DHT22;23625;48.784;9.336;2023-07-28T05:20:59;16.10;99.90
37786;DHT22;23625;48.784;9.336;2023-07-28T05:23:25;16.10;99.90
37786;DHT22;23625;48.784;9.336;2023-07-28T05:25:50;16.10;99.90
37786;DHT22;23625;48.784;9.336;2023-07-28T05:28:16;16.10;99.90
37786;DHT22;23625;48.784;9.336;2023-07-28T05:30:41;16.10;99.90
37786;DHT22;23625;48.784;9.336;2023-07-28T05:33:07;16.10;99.90
37786;DHT22;23625;48.784;9.336;2023-07-28T05:35:32;16.10;99.90
37786;DHT22;23625;48.784;9.336;2023-07-28T05:37:58;16.20;99.90
37786;DHT22;23625;48.784;9.336;2023-07-28T05:40:24;16.20;99.90
37786;DHT22;23625;48.784;9.336;2023-07-28T05:42:49;16.40;99.90
37786;DHT22;23625;48.784;9.336;2023-07-28T05:45:15;16.20;99.90
37786;DHT22;23625;48.784;9.336;2023-07-28T05:47:40;16.30;99.90
37786;DHT22;23625;48.784;9.336;2023-07-28T05:50:06;16.20;99.90
37786;DHT22;23625;48.784;9.336;2023-07-28T05:52:32;16.30;99.90
37786;DHT22;23625;48.784;9.336;2023-07-28T05:54:57;16.30;99.90
37786;DHT22;23625;48.784;9.336;2023-07-28T05:57:23;16.40;99.90
37786;DHT22;23625;48.784;9.336;2023-07-28T05:59:50;16.40;99.90
37786;DHT22;23625;48.784;9.336;2023-07-28T06:02:15;16.50;99.90
37786;DHT22;23625;48.784;9.336;2023-07-28T06:04:41;16.50;99.90
37786;DHT22;23625;48.784;9.336;2023-07-28T06:07:06;16.60;99.90
37786;DHT22;23625;48.784;9.336;2023-07-28T06:09:32;16.60;99.90
37786;DHT22;23625;48.784;9.336;2023-07-28T06:11:58;16.70;99.90
37786;DHT22;23625;48.784;9.336;2023-07-28T06:14:24;16.70;99.90
37786;DHT22;23625;48.784;9.336;2023-07-28T06:16:49;16.80;99.90
37786;DHT22;23625;48.784;9.336;2023-07-28T06:19:15;16.80;99.90
37786;DHT22;23625;48.784;9.336;2023-07-28T06:21:42;16.80;99.90
37786;DHT22;23625;48.784;9.336;2023-07-28T06:24:07;16.80;99.90
37786;DHT22;23625;48.784;9.336;2023-07-28T06:26:33;16.90;99.90
37786;DHT22;23625;48.784;9.336;2023-07-28T06:28:58;16.90;99.90
37786;DHT22;23625;48.784;9.336;2023-07-28T06:31:24;16.90;99.90
37786;DHT22;23625;48.784;9.336;2023-07-28T06:33:50;16.90;99.90
37786;DHT22;23625;48.784;9.336;2023-07-28T06:36:15;16.90;99.90
37786;DHT22;23625;48.784;9.336;2023-07-28T06:38:41;17.00;99.90
37786;DHT22;23625;48.784;9.336;2023-07-28T06:41:09;17.00;99.90
37786;DHT22;23625;48.784;9.336;2023-07-28T06:43:34;17.00;99.90
37786;DHT22;23625;48.784;9.336;2023-07-28T06:46:00;17.00;99.90
37786;DHT22;23625;48.784;9.336;2023-07-28T06:48:26;17.00;99.90
37786;DHT22;23625;48.784;9.336;2023-07-28T06:50:51;17.10;99.90
37786;DHT22;23625;48.784;9.336;2023-07-28T06:53:17;17.10;99.90
37786;DHT22;23625;48.784;9.336;2023-07-28T06:55:43;17.10;99.90
37786;DHT22;23625;48.784;9.336;2023-07-28T06:58:09;17.10;99.90
37786;DHT22;23625;48.784;9.336;2023-07-28T07:00:35;17.10;99.90
37786;DHT22;23625;48.784;9.336;2023-07-28T07:03:00;17.20;99.90
37786;DHT22;23625;48.784;9.336;2023-07-28T07:05:26;17.10;99.90
37786;DHT22;23625;48.784;9.336;2023-07-28T07:07:51;17.20;99.90
37786;DHT22;23625;48.784;9.336;2023-07-28T07:10:18;17.20;99.90
37786;DHT22;23625;48.784;9.336;2023-07-28T07:12:43;17.30;99.90
37786;DHT22;23625;48.784;9.336;2023-07-28T07:15:09;17.40;99.90
37786;DHT22;23625;48.784;9.336;2023-07-28T07:17:37;17.40;99.90
37786;DHT22;23625;48.784;9.336;2023-07-28T07:20:03;17.50;99.90
37786;DHT22;23625;48.784;9.336;2023-07-28T07:22:29;17.50;99.90
37786;DHT22;23625;48.784;9.336;2023-07-28T07:24:55;17.60;99.90
37786;DHT22;23625;48.784;9.336;2023-07-28T07:27:23;17.60;99.90
37786;DHT22;23625;48.784;9.336;2023-07-28T07:29:49;17.70;99.90
37786;DHT22;23625;48.784;9.336;2023-07-28T07:32:14;17.70;99.90
37786;DHT22;23625;48.784;9.336;2023-07-28T07:34:41;17.80;99.90
37786;DHT22;23625;48.784;9.336;2023-07-28T07:37:07;17.80;99.90
37786;DHT22;23625;48.784;9.336;2023-07-28T07:39:32;17.80;99.90
37786;DHT22;23625;48.784;9.336;2023-07-28T07:41:59;17.90;99.90
37786;DHT22;23625;48.784;9.336;2023-07-28T07:44:25;18.00;99.90
37786;DHT22;23625;48.784;9.336;2023-07-28T07:46:50;18.10;99.90
37786;DHT22;23625;48.784;9.336;2023-07-28T07:49:16;18.10;99.90
37786;DHT22;23625;48.784;9.336;2023-07-28T07:51:42;18.30;99.90
37786;DHT22;23625;48.784;9.336;2023-07-28T07:54:07;18.40;99.90
37786;DHT22;23625;48.784;9.336;2023-07-28T07:56:33;18.50;99.90
37786;DHT22;23625;48.784;9.336;2023-07-28T07:58:58;18.60;99.90
37786;DHT22;23625;48.784;9.336;2023-07-28T08:01:24;18.70;99.90
37786;DHT22;23625;48.784;9.336;2023-07-28T08:03:49;18.80;99.90
37786;DHT22;23625;48.784;9.336;2023-07-28T08:06:15;18.80;99.90
37786;DHT22;23625;48.784;9.336;2023-07-28T08:08:41;18.80;99.90
37786;DHT22;23625;48.784;9.336;2023-07-28T08:11:07;18.90;99.90
37786;DHT22;23625;48.784;9.336;2023-07-28T08:13:33;18.90;99.90
37786;DHT22;23625;48.784;9.336;2023-07-28T08:15:58;19.00;99.90
37786;DHT22;23625;48.784;9.336;2023-07-28T08:18:24;19.00;99.90
37786;DHT22;23625;48.784;9.336;2023-07-28T08:20:49;19.00;99.90
37786;DHT22;23625;48.784;9.336;2023-07-28T08:23:15;18.90;99.90
37786;DHT22;23625;48.784;9.336;2023-07-28T08:25:41;19.00;99.90
37786;DHT22;23625;48.784;9.336;2023-07-28T08:28:06;19.00;99.90
37786;DHT22;23625;48.784;9.336;2023-07-28T08:30:32;18.90;99.90
37786;DHT22;23625;48.784;9.336;2023-07-28T08:32:58;19.00;99.90
37786;DHT22;23625;48.784;9.336;2023-07-28T08:35:24;18.90;99.90
37786;DHT22;23625;48.784;9.336;2023-07-28T08:37:49;18.90;99.90
37786;DHT22;23625;48.784;9.336;2023-07-28T08:40:15;19.00;99.90
37786;DHT22;23625;48.784;9.336;2023-07-28T08:42:41;19.00;99.90
37786;DHT22;23625;48.784;9.336;2023-07-28T08:45:07;19.10;99.90
37786;DHT22;23625;48.784;9.336;2023-07-28T08:47:34;19.00;99.90
37786;DHT22;23625;48.784;9.336;2023-07-28T08:50:00;19.10;99.90
37786;DHT22;23625;48.784;9.336;2023-07-28T08:52:25;19.20;99.90
37786;DHT22;23625;48.784;9.336;2023-07-28T08:54:51;19.20;99.90
37786;DHT22;23625;48.784;9.336;2023-07-28T08:57:17;19.30;99.90
37786;DHT22;23625;48.784;9.336;2023-07-28T08:59:44;19.40;99.90
37786;DHT22;23625;48.784;9.336;2023-07-28T09:02:14;19.40;99.90
37786;DHT22;23625;48.784;9.336;2023-07-28T09:04:41;19.50;99.90
37786;DHT22;23625;48.784;9.336;2023-07-28T09:07:06;19.70;99.90
37786;DHT22;23625;48.784;9.336;2023-07-28T09:09:32;19.80;99.90
37786;DHT22;23625;48.784;9.336;2023-07-28T09:11:59;19.90;99.90
37786;DHT22;23625;48.784;9.336;2023-07-28T09:14:25;20.00;99.90
37786;DHT22;23625;48.784;9.336;2023-07-28T09:16:52;20.00;99.90
37786;DHT22;23625;48.784;9.336;2023-07-28T09:19:20;20.10;99.90
37786;DHT22;23625;48.784;9.336;2023-07-28T09:22:00;20.10;99.90
37786;DHT22;23625;48.784;9.336;2023-07-28T09:24:32;20.10;99.90
37786;DHT22;23625;48.784;9.336;2023-07-28T09:26:59;20.10;99.90
37786;DHT22;23625;48.784;9.336;2023-07-28T09:29:26;20.10;99.90
37786;DHT22;23625;48.784;9.336;2023-07-28T09:31:54;20.10;99.90
37786;DHT22;23625;48.784;9.336;2023-07-28T09:34:29;20.10;99.90
37786;DHT22;23625;48.784;9.336;2023-07-28T09:36:55;20.00;99.90
37786;DHT22;23625;48.784;9.336;2023-07-28T09:39:21;20.00;99.90
37786;DHT22;23625;48.784;9.336;2023-07-28T09:41:47;20.00;99.90
37786;DHT22;23625;48.784;9.336;2023-07-28T09:44:14;20.00;99.90
37786;DHT22;23625;48.784;9.336;2023-07-28T09:46:53;20.00;99.90
37786;DHT22;23625;48.784;9.336;2023-07-28T09:49:28;20.00;99.90
37786;DHT22;23625;48.784;9.336;2023-07-28T09:52:02;20.00;99.90
37786;DHT22;23625;48.784;9.336;2023-07-28T09:54:29;20.00;99.90
37786;DHT22;23625;48.784;9.336;2023-07-28T09:56:56;20.10;99.90
37786;DHT22;23625;48.784;9.336;2023-07-28T09:59:29;20.20;99.90
37786;DHT22;23625;48.784;9.336;2023-07-28T10:01:58;20.30;99.90
37786;DHT22;23625;48.784;9.336;2023-07-28T10:04:24;20.40;99.90
37786;DHT22;23625;48.784;9.336;2023-07-28T10:06:52;20.50;99.90
37786;DHT22;23625;48.784;9.336;2023-07-28T10:09:24;20.60;99.90
37786;DHT22;23625;48.784;9.336;2023-07-28T10:11:50;20.70;99.90
37786;DHT22;23625;48.784;9.336;2023-07-28T10:14:35;20.90;99.90
37786;DHT22;23625;48.784;9.336;2023-07-28T10:17:04;20.90;99.90
37786;DHT22;23625;48.784;9.336;2023-07-28T10:19:34;21.10;99.90
37786;DHT22;23625;48.784;9.336;2023-07-28T10:22:07;21.30;99.90
37786;DHT22;23625;48.784;9.336;2023-07-28T10:24:52;21.40;99.90
37786;DHT22;23625;48.784;9.336;2023-07-28T10:27:35;21.60;99.90
37786;DHT22;23625;48.784;9.336;2023-07-28T10:30:11;21.70;99.90
37786;DHT22;23625;48.784;9.336;2023-07-28T10:32:42;21.70;99.90
37786;DHT22;23625;48.784;9.336;2023-07-28T10:37:37;21.70;99.90
37786;DHT22;23625;48.784;9.336;2023-07-28T10:40:31;21.70;99.90
37786;DHT22;23625;48.784;9.336;2023-07-28T10:42:59;21.80;99.90
37786;DHT22;23625;48.784;9.336;2023-07-28T10:45:26;21.90;99.90
37786;DHT22;23625;48.784;9.336;2023-07-28T10:47:53;21.90;99.90
37786;DHT22;23625;48.784;9.336;2023-07-28T10:50:27;22.00;99.90
37786;DHT22;23625;48.784;9.336;2023-07-28T10:52:53;22.00;99.90
37786;DHT22;23625;48.784;9.336;2023-07-28T10:55:20;22.00;99.90
37786;DHT22;23625;48.784;9.336;2023-07-28T10:57:47;22.10;99.90
37786;DHT22;23625;48.784;9.336;2023-07-28T11:00:18;22.10;99.90
37786;DHT22;23625;48.784;9.336;2023-07-28T11:02:46;22.20;99.90
37786;DHT22;23625;48.784;9.336;2023-07-28T11:05:18;22.30;99.90
37786;DHT22;23625;48.784;9.336;2023-07-28T11:07:44;22.30;99.90
37786;DHT22;23625;48.784;9.336;2023-07-28T11:10:11;22.30;99.90
37786;DHT22;23625;48.784;9.336;2023-07-28T11:12:49;22.40;99.90
37786;DHT22;23625;48.784;9.336;2023-07-28T11:15:17;22.30;99.90
37786;DHT22;23625;48.784;9.336;2023-07-28T11:17:47;22.20;99.90
37786;DHT22;23625;48.784;9.336;2023-07-28T11:20:21;22.20;99.90
37786;DHT22;23625;48.784;9.336;2023-07-28T11:22:54;22.30;99.90
37786;DHT22;23625;48.784;9.336;2023-07-28T11:25:21;22.50;99.90
37786;DHT22;23625;48.784;9.336;2023-07-28T11:27:47;22.60;99.90
37786;DHT22;23625;48.784;9.336;2023-07-28T11:30:14;22.70;99.90
37786;DHT22;23625;48.784;9.336;2023-07-28T11:32:42;22.90;99.90
37786;DHT22;23625;48.784;9.336;2023-07-28T11:35:10;23.00;99.90
37786;DHT22;23625;48.784;9.336;2023-07-28T11:37:37;23.20;99.90
37786;DHT22;23625;48.784;9.336;2023-07-28T11:40:04;23.50;99.90
37786;DHT22;23625;48.784;9.336;2023-07-28T11:42:45;23.70;99.90
37786;DHT22;23625;48.784;9.336;2023-07-28T11:45:13;23.80;99.90
37786;DHT22;23625;48.784;9.336;2023-07-28T11:47:39;24.00;99.90
37786;DHT22;23625;48.784;9.336;2023-07-28T11:50:05;24.10;99.90
37786;DHT22;23625;48.784;9.336;2023-07-28T11:52:35;24.20;99.90
37786;DHT22;23625;48.784;9.336;2023-07-28T11:55:05;24.20;99.90
37786;DHT22;23625;48.784;9.336;2023-07-28T11:57:32;24.20;99.90
37786;DHT22;23625;48.784;9.336;2023-07-28T11:59:59;24.30;99.90
37786;DHT22;23625;48.784;9.336;2023-07-28T12:02:26;24.30;99.90
37786;DHT22;23625;48.784;9.336;2023-07-28T12:04:52;24.20;99.90
37786;DHT22;23625;48.784;9.336;2023-07-28T12:07:30;24.10;99.90
37786;DHT22;23625;48.784;9.336;2023-07-28T12:09:56;23.80;99.90
37786;DHT22;23625;48.784;9.336;2023-07-28T12:12:26;23.70;99.90
37786;DHT22;23625;48.784;9.336;2023-07-28T12:14:54;23.60;99.90
37786;DHT22;23625;48.784;9.336;2023-07-28T12:17:22;23.60;99.90
37786;DHT22;23625;48.784;9.336;2023-07-28T12:22:26;23.40;99.90
37786;DHT22;23625;48.784;9.336;2023-07-28T12:24:55;23.50;99.90
37786;DHT22;23625;48.784;9.336;2023-07-28T12:27:22;23.30;99.90
37786;DHT22;23625;48.784;9.336;2023-07-28T12:29:52;23.20;99.90
37786;DHT22;23625;48.784;9.336;2023-07-28T12:32:18;23.00;99.90
37786;DHT22;23625;48.784;9.336;2023-07-28T12:34:44;22.80;99.90
37786;DHT22;23625;48.784;9.336;2023-07-28T12:37:10;22.70;99.90
37786;DHT22;23625;48.784;9.336;2023-07-28T12:39:37;22.60;99.90
37786;DHT22;23625;48.784;9.336;2023-07-28T12:42:08;22.50;99.90
37786;DHT22;23625;48.784;9.336;2023-07-28T12:44:35;22.40;99.90
37786;DHT22;23625;48.784;9.336;2023-07-28T12:47:01;22.10;99.90
37786;DHT22;23625;48.784;9.336;2023-07-28T12:49:27;22.40;99.90
37786;DHT22;23625;48.784;9.336;2023-07-28T12:51:55;22.30;99.90
37786;DHT22;23625;48.784;9.336;2023-07-28T12:54:22;22.30;99.90
37786;DHT22;23625;48.784;9.336;2023-07-28T12:56:47;22.40;99.90
37786;DHT22;23625;48.784;9.336;2023-07-28T12:59:14;22.30;99.90
37786;DHT22;23625;48.784;9.336;2023-07-28T13:01:39;22.40;99.90
37786;DHT22;23625;48.784;9.336;2023-07-28T13:04:05;22.40;99.90
37786;DHT22;23625;48.784;9.336;2023-07-28T13:06:30;22.50;99.90
37786;DHT22;23625;48.784;9.336;2023-07-28T13:08:56;22.50;99.90
37786;DHT22;23625;48.784;9.336;2023-07-28T13:11:22;22.50;99.90
37786;DHT22;23625;48.784;9.336;2023-07-28T13:13:47;22.60;99.90
37786;DHT22;23625;48.784;9.336;2023-07-28T13:16:14;22.60;99.90
37786;DHT22;23625;48.784;9.336;2023-07-28T13:18:40;22.60;99.90
37786;DHT22;23625;48.784;9.336;2023-07-28T13:21:06;22.60;99.90
37786;DHT22;23625;48.784;9.336;2023-07-28T13:23:32;22.50;99.90
37786;DHT22;23625;48.784;9.336;2023-07-28T13:25:57;22.60;99.90
37786;DHT22;23625;48.784;9.336;2023-07-28T13:28:23;22.60;99.90
37786;DHT22;23625;48.784;9.336;2023-07-28T13:30:51;22.50;99.90
37786;DHT22;23625;48.784;9.336;2023-07-28T13:33:16;22.40;99.90
37786;DHT22;23625;48.784;9.336;2023-07-28T13:35:42;22.40;99.90
37786;DHT22;23625;48.784;9.336;2023-07-28T13:38:08;22.40;99.90
37786;DHT22;23625;48.784;9.336;2023-07-28T13:40:35;22.40;99.90
37786;DHT22;23625;48.784;9.336;2023-07-28T13:43:00;22.40;99.90
37786;DHT22;23625;48.784;9.336;2023-07-28T13:45:26;22.40;99.90
37786;DHT22;23625;48.784;9.336;2023-07-28T13:47:52;22.30;99.90
37786;DHT22;23625;48.784;9.336;2023-07-28T13:50:17;22.20;99.90
37786;DHT22;23625;48.784;9.336;2023-07-28T13:52:43;22.20;99.90
37786;DHT22;23625;48.784;9.336;2023-07-28T13:55:09;22.20;99.90
37786;DHT22;23625;48.784;9.336;2023-07-28T13:57:35;21.90;99.90
37786;DHT22;23625;48.784;9.336;2023-07-28T14:00:00;21.80;99.90
37786;DHT22;23625;48.784;9.336;2023-07-28T14:02:27;21.60;99.90
37786;DHT22;23625;48.784;9.336;2023-07-28T14:04:53;21.50;99.90
37786;DHT22;23625;48.784;9.336;2023-07-28T14:07:19;21.30;99.90
37786;DHT22;23625;48.784;9.336;2023-07-28T14:09:45;21.10;99.90
37786;DHT22;23625;48.784;9.336;2023-07-28T14:12:10;21.00;99.90
37786;DHT22;23625;48.784;9.336;2023-07-28T14:14:36;20.90;99.90
37786;DHT22;23625;48.784;9.336;2023-07-28T14:17:02;20.80;99.90
37786;DHT22;23625;48.784;9.336;2023-07-28T14:19:28;20.70;99.90
37786;DHT22;23625;48.784;9.336;2023-07-28T14:21:53;20.60;99.90
37786;DHT22;23625;48.784;9.336;2023-07-28T14:24:19;20.50;99.90
37786;DHT22;23625;48.784;9.336;2023-07-28T14:26:45;20.40;99.90
37786;DHT22;23625;48.784;9.336;2023-07-28T14:29:10;20.30;99.90
37786;DHT22;23625;48.784;9.336;2023-07-28T14:31:36;20.20;99.90
37786;DHT22;23625;48.784;9.336;2023-07-28T14:34:01;20.00;99.90
37786;DHT22;23625;48.784;9.336;2023-07-28T14:36:27;20.10;99.90
37786;DHT22;23625;48.784;9.336;2023-07-28T14:38:53;20.10;99.90
37786;DHT22;23625;48.784;9.336;2023-07-28T14:41:18;20.10;99.90
37786;DHT22;23625;48.784;9.336;2023-07-28T14:43:44;20.10;99.90
37786;DHT22;23625;48.784;9.336;2023-07-28T14:46:10;20.10;99.90
37786;DHT22;23625;48.784;9.336;2023-07-28T14:48:36;20.10;99.90
37786;DHT22;23625;48.784;9.336;2023-07-28T14:51:02;20.00;99.90
37786;DHT22;23625;48.784;9.336;2023-07-28T14:53:38;19.90;99.90
37786;DHT22;23625;48.784;9.336;2023-07-28T14:56:05;19.90;99.90
37786;DHT22;23625;48.784;9.336;2023-07-28T14:58:31;19.90;99.90
37786;DHT22;23625;48.784;9.336;2023-07-28T15:00:58;19.90;99.90
37786;DHT22;23625;48.784;9.336;2023-07-28T15:03:27;19.90;99.90
37786;DHT22;23625;48.784;9.336;2023-07-28T15:05:53;19.90;99.90
37786;DHT22;23625;48.784;9.336;2023-07-28T15:08:20;19.90;99.90
37786;DHT22;23625;48.784;9.336;2023-07-28T15:10:45;20.00;99.90
37786;DHT22;23625;48.784;9.336;2023-07-28T15:13:11;20.00;99.90
37786;DHT22;23625;48.784;9.336;2023-07-28T15:15:37;20.00;99.90
37786;DHT22;23625;48.784;9.336;2023-07-28T15:18:02;20.00;99.90
37786;DHT22;23625;48.784;9.336;2023-07-28T15:20:28;20.10;99.90
37786;DHT22;23625;48.784;9.336;2023-07-28T15:22:54;20.10;99.90
37786;DHT22;23625;48.784;9.336;2023-07-28T15:25:19;20.00;99.90
37786;DHT22;23625;48.784;9.336;2023-07-28T15:27:45;20.00;99.90
37786;DHT22;23625;48.784;9.336;2023-07-28T15:30:11;20.00;99.90
37786;DHT22;23625;48.784;9.336;2023-07-28T15:32:37;20.10;99.90
37786;DHT22;23625;48.784;9.336;2023-07-28T15:35:04;20.20;99.90